sensor_id;sensor_type;location;lat;lon;timestamp;P1;durP1;ratioP1;P2;durP2;ratioP2
39740;SDS011;25426;53.478;10.190;2023-09-30T07:05:42;13.98;;;7.60;;
39740;SDS011;25426;53.478;10.190;2023-09-30T07:11:30;16.20;;;6.90;;
39740;SDS011;25426;53.478;10.190;2023-09-30T07:14:22;14.15;;;6.80;;
39740;SDS011;25426;53.478;10.190;2023-09-30T07:16:52;16.70;;;6.57;;
39740;SDS011;25426;53.478;10.190;2023-09-30T07:19:23;16.23;;;6.63;;
39740;SDS011;25426;53.478;10.190;2023-09-30T07:22:01;16.65;;;6.45;;
39740;SDS011;25426;53.478;10.190;2023-09-30T07:24:32;13.07;;;5.97;;
39740;SDS011;25426;53.478;10.190;2023-09-30T07:27:12;13.88;;;6.25;;
39740;SDS011;25426;53.478;10.190;2023-09-30T07:29:43;14.30;;;5.40;;
39740;SDS011;25426;53.478;10.190;2023-09-30T07:32:14;12.60;;;5.30;;
39740;SDS011;25426;53.478;10.190;2023-09-30T07:34:51;14.07;;;6.20;;
39740;SDS011;25426;53.478;10.190;2023-09-30T07:37:22;10.40;;;5.28;;
39740;SDS011;25426;53.478;10.190;2023-09-30T07:39:53;14.00;;;5.85;;
39740;SDS011;25426;53.478;10.190;2023-09-30T07:42:32;19.20;;;7.07;;
39740;SDS011;25426;53.478;10.190;2023-09-30T07:45:12;12.95;;;5.75;;
39740;SDS011;25426;53.478;10.190;2023-09-30T07:48:00;12.53;;;5.30;;
39740;SDS011;25426;53.478;10.190;2023-09-30T07:50:34;14.40;;;5.95;;
39740;SDS011;25426;53.478;10.190;2023-09-30T07:53:05;13.33;;;5.73;;
39740;SDS011;25426;53.478;10.190;2023-09-30T07:55:41;12.88;;;5.97;;
39740;SDS011;25426;53.478;10.190;2023-09-30T07:58:11;11.00;;;5.17;;
39740;SDS011;25426;53.478;10.190;2023-09-30T08:00:42;14.85;;;5.63;;
39740;SDS011;25426;53.478;10.190;2023-09-30T08:03:13;10.82;;;5.03;;
39740;SDS011;25426;53.478;10.190;2023-09-30T08:05:43;13.80;;;5.13;;
39740;SDS011;25426;53.478;10.190;2023-09-30T08:08:17;10.27;;;5.07;;
39740;SDS011;25426;53.478;10.190;2023-09-30T08:10:56;12.95;;;5.03;;
39740;SDS011;25426;53.478;10.190;2023-09-30T08:14:03;10.48;;;4.50;;
39740;SDS011;25426;53.478;10.190;2023-09-30T08:16:41;11.35;;;4.63;;
39740;SDS011;25426;53.478;10.190;2023-09-30T08:19:32;12.27;;;4.93;;
39740;SDS011;25426;53.478;10.190;2023-09-30T08:22:10;12.48;;;5.00;;
39740;SDS011;25426;53.478;10.190;2023-09-30T08:33:22;10.77;;;4.45;;
39740;SDS011;25426;53.478;10.190;2023-09-30T08:36:03;10.98;;;4.40;;
39740;SDS011;25426;53.478;10.190;2023-09-30T08:38:43;12.27;;;4.45;;
39740;SDS011;25426;53.478;10.190;2023-09-30T08:46:52;10.50;;;4.22;;
39740;SDS011;25426;53.478;10.190;2023-09-30T08:49:24;9.32;;;4.22;;
39740;SDS011;25426;53.478;10.190;2023-09-30T08:51:55;11.88;;;4.00;;
39740;SDS011;25426;53.478;10.190;2023-09-30T08:54:30;11.43;;;4.32;;
39740;SDS011;25426;53.478;10.190;2023-09-30T08:57:01;11.13;;;4.00;;
39740;SDS011;25426;53.478;10.190;2023-09-30T08:59:34;12.20;;;4.10;;
39740;SDS011;25426;53.478;10.190;2023-09-30T09:02:08;10.90;;;4.10;;
39740;SDS011;25426;53.478;10.190;2023-09-30T09:04:42;10.32;;;3.95;;
39740;SDS011;25426;53.478;10.190;2023-09-30T09:07:13;12.88;;;3.88;;
39740;SDS011;25426;53.478;10.190;2023-09-30T09:10:02;11.00;;;3.33;;
39740;SDS011;25426;53.478;10.190;2023-09-30T09:12:38;10.32;;;3.35;;
39740;SDS011;25426;53.478;10.190;2023-09-30T09:15:19;10.50;;;3.63;;
39740;SDS011;25426;53.478;10.190;2023-09-30T09:17:51;11.37;;;3.90;;
39740;SDS011;25426;53.478;10.190;2023-09-30T09:20:23;12.20;;;3.33;;
39740;SDS011;25426;53.478;10.190;2023-09-30T09:22:58;8.65;;;3.70;;
39740;SDS011;25426;53.478;10.190;2023-09-30T09:25:30;12.67;;;3.97;;
39740;SDS011;25426;53.478;10.190;2023-09-30T09:28:10;11.67;;;4.07;;
39740;SDS011;25426;53.478;10.190;2023-09-30T09:30:41;12.35;;;3.75;;
39740;SDS011;25426;53.478;10.190;2023-09-30T09:33:13;10.70;;;4.25;;
39740;SDS011;25426;53.478;10.190;2023-09-30T09:35:44;10.35;;;3.85;;
39740;SDS011;25426;53.478;10.190;2023-09-30T09:38:20;9.40;;;3.25;;
39740;SDS011;25426;53.478;10.190;2023-09-30T09:40:51;8.05;;;2.90;;
39740;SDS011;25426;53.478;10.190;2023-09-30T09:43:30;10.27;;;3.63;;
39740;SDS011;25426;53.478;10.190;2023-09-30T09:46:01;10.55;;;3.35;;
39740;SDS011;25426;53.478;10.190;2023-09-30T09:48:53;10.80;;;3.40;;
39740;SDS011;25426;53.478;10.190;2023-09-30T09:51:31;10.13;;;2.85;;
39740;SDS011;25426;53.478;10.190;2023-09-30T09:54:03;10.85;;;3.40;;
39740;SDS011;25426;53.478;10.190;2023-09-30T09:56:45;9.77;;;2.78;;
39740;SDS011;25426;53.478;10.190;2023-09-30T09:59:25;9.48;;;3.20;;
39740;SDS011;25426;53.478;10.190;2023-09-30T10:02:00;6.25;;;2.72;;
39740;SDS011;25426;53.478;10.190;2023-09-30T10:04:31;10.60;;;3.08;;
39740;SDS011;25426;53.478;10.190;2023-09-30T10:07:01;12.00;;;3.53;;
39740;SDS011;25426;53.478;10.190;2023-09-30T10:09:34;11.45;;;3.30;;
39740;SDS011;25426;53.478;10.190;2023-09-30T10:12:05;12.77;;;3.17;;
39740;SDS011;25426;53.478;10.190;2023-09-30T10:14:38;6.63;;;2.88;;
39740;SDS011;25426;53.478;10.190;2023-09-30T10:17:09;12.57;;;2.95;;
39740;SDS011;25426;53.478;10.190;2023-09-30T10:22:36;12.70;;;2.85;;
39740;SDS011;25426;53.478;10.190;2023-09-30T10:25:32;7.97;;;2.45;;
39740;SDS011;25426;53.478;10.190;2023-09-30T10:31:18;5.38;;;2.17;;
39740;SDS011;25426;53.478;10.190;2023-09-30T10:36:32;9.10;;;2.38;;
39740;SDS011;25426;53.478;10.190;2023-09-30T10:39:04;9.10;;;1.98;;
39740;SDS011;25426;53.478;10.190;2023-09-30T10:44:39;11.50;;;2.50;;
39740;SDS011;25426;53.478;10.190;2023-09-30T10:50:49;9.45;;;2.88;;
39740;SDS011;25426;53.478;10.190;2023-09-30T10:53:22;10.32;;;2.38;;
39740;SDS011;25426;53.478;10.190;2023-09-30T10:56:00;9.32;;;3.25;;
39740;SDS011;25426;53.478;10.190;2023-09-30T10:58:41;10.27;;;2.97;;
39740;SDS011;25426;53.478;10.190;2023-09-30T11:01:21;8.70;;;2.00;;
39740;SDS011;25426;53.478;10.190;2023-09-30T11:03:58;8.75;;;2.70;;
39740;SDS011;25426;53.478;10.190;2023-09-30T11:06:34;7.95;;;2.60;;
39740;SDS011;25426;53.478;10.190;2023-09-30T11:09:04;9.23;;;2.45;;
39740;SDS011;25426;53.478;10.190;2023-09-30T11:11:39;11.45;;;2.55;;
39740;SDS011;25426;53.478;10.190;2023-09-30T11:14:30;7.57;;;1.98;;
39740;SDS011;25426;53.478;10.190;2023-09-30T12:08:31;8.52;;;2.42;;
39740;SDS011;25426;53.478;10.190;2023-09-30T12:11:02;7.75;;;2.28;;
39740;SDS011;25426;53.478;10.190;2023-09-30T12:13:33;7.63;;;2.03;;
39740;SDS011;25426;53.478;10.190;2023-09-30T12:16:07;6.18;;;1.85;;
39740;SDS011;25426;53.478;10.190;2023-09-30T12:18:40;3.78;;;1.70;;
39740;SDS011;25426;53.478;10.190;2023-09-30T12:21:11;7.18;;;1.70;;
39740;SDS011;25426;53.478;10.190;2023-09-30T12:23:50;7.32;;;2.17;;
39740;SDS011;25426;53.478;10.190;2023-09-30T12:26:21;7.63;;;1.80;;
39740;SDS011;25426;53.478;10.190;2023-09-30T12:28:52;5.10;;;1.92;;
39740;SDS011;25426;53.478;10.190;2023-09-30T12:31:23;6.35;;;2.45;;
39740;SDS011;25426;53.478;10.190;2023-09-30T12:33:53;6.63;;;2.15;;
39740;SDS011;25426;53.478;10.190;2023-09-30T12:36:24;4.45;;;1.60;;
39740;SDS011;25426;53.478;10.190;2023-09-30T12:38:55;7.05;;;1.92;;
39740;SDS011;25426;53.478;10.190;2023-09-30T12:41:26;6.05;;;1.83;;
39740;SDS011;25426;53.478;10.190;2023-09-30T12:43:57;8.82;;;2.15;;
39740;SDS011;25426;53.478;10.190;2023-09-30T12:46:28;5.50;;;2.00;;
39740;SDS011;25426;53.478;10.190;2023-09-30T12:48:59;7.28;;;2.13;;
39740;SDS011;25426;53.478;10.190;2023-09-30T12:51:30;8.18;;;1.67;;
39740;SDS011;25426;53.478;10.190;2023-09-30T12:54:00;6.22;;;1.75;;
39740;SDS011;25426;53.478;10.190;2023-09-30T12:56:31;7.25;;;1.40;;
39740;SDS011;25426;53.478;10.190;2023-09-30T12:59:03;6.68;;;1.83;;
39740;SDS011;25426;53.478;10.190;2023-09-30T13:01:34;6.95;;;1.85;;
39740;SDS011;25426;53.478;10.190;2023-09-30T13:04:05;6.63;;;2.40;;
39740;SDS011;25426;53.478;10.190;2023-09-30T13:06:38;4.15;;;2.10;;
39740;SDS011;25426;53.478;10.190;2023-09-30T13:09:08;6.78;;;2.38;;
39740;SDS011;25426;53.478;10.190;2023-09-30T13:11:39;7.07;;;2.25;;
39740;SDS011;25426;53.478;10.190;2023-09-30T13:14:10;6.55;;;2.00;;
39740;SDS011;25426;53.478;10.190;2023-09-30T13:16:41;4.18;;;1.50;;
39740;SDS011;25426;53.478;10.190;2023-09-30T13:19:11;6.35;;;1.98;;
39740;SDS011;25426;53.478;10.190;2023-09-30T13:21:42;5.93;;;1.75;;
39740;SDS011;25426;53.478;10.190;2023-09-30T13:24:14;12.95;;;2.60;;
39740;SDS011;25426;53.478;10.190;2023-09-30T13:26:45;8.02;;;2.05;;
39740;SDS011;25426;53.478;10.190;2023-09-30T13:29:16;5.43;;;2.20;;
39740;SDS011;25426;53.478;10.190;2023-09-30T13:31:47;5.07;;;1.63;;
39740;SDS011;25426;53.478;10.190;2023-09-30T13:34:18;5.90;;;1.60;;
39740;SDS011;25426;53.478;10.190;2023-09-30T13:36:51;6.00;;;1.95;;
39740;SDS011;25426;53.478;10.190;2023-09-30T13:39:21;8.70;;;1.95;;
39740;SDS011;25426;53.478;10.190;2023-09-30T13:41:54;5.13;;;1.67;;
39740;SDS011;25426;53.478;10.190;2023-09-30T13:44:25;6.53;;;1.70;;
39740;SDS011;25426;53.478;10.190;2023-09-30T13:46:55;5.10;;;1.48;;
39740;SDS011;25426;53.478;10.190;2023-09-30T13:49:26;6.03;;;1.42;;
39740;SDS011;25426;53.478;10.190;2023-09-30T13:52:00;4.65;;;1.48;;
39740;SDS011;25426;53.478;10.190;2023-09-30T13:54:31;8.18;;;2.53;;
39740;SDS011;25426;53.478;10.190;2023-09-30T13:57:02;5.30;;;1.85;;
39740;SDS011;25426;53.478;10.190;2023-09-30T13:59:33;5.25;;;1.70;;
39740;SDS011;25426;53.478;10.190;2023-09-30T14:02:05;8.07;;;1.95;;
39740;SDS011;25426;53.478;10.190;2023-09-30T14:04:35;6.95;;;1.98;;
39740;SDS011;25426;53.478;10.190;2023-09-30T14:07:12;8.10;;;2.08;;
39740;SDS011;25426;53.478;10.190;2023-09-30T14:09:43;8.45;;;1.73;;
39740;SDS011;25426;53.478;10.190;2023-09-30T14:12:14;5.10;;;1.60;;
39740;SDS011;25426;53.478;10.190;2023-09-30T14:14:45;7.03;;;2.42;;
39740;SDS011;25426;53.478;10.190;2023-09-30T14:17:16;7.88;;;1.92;;
39740;SDS011;25426;53.478;10.190;2023-09-30T14:19:46;5.85;;;1.92;;
39740;SDS011;25426;53.478;10.190;2023-09-30T14:22:17;10.13;;;2.40;;
39740;SDS011;25426;53.478;10.190;2023-09-30T14:24:48;9.15;;;1.98;;
39740;SDS011;25426;53.478;10.190;2023-09-30T14:27:18;7.13;;;2.00;;
39740;SDS011;25426;53.478;10.190;2023-09-30T14:29:50;7.10;;;1.67;;
39740;SDS011;25426;53.478;10.190;2023-09-30T14:32:21;9.57;;;2.75;;
39740;SDS011;25426;53.478;10.190;2023-09-30T14:34:53;5.18;;;2.03;;
39740;SDS011;25426;53.478;10.190;2023-09-30T14:37:23;6.18;;;1.90;;
39740;SDS011;25426;53.478;10.190;2023-09-30T14:39:54;7.82;;;1.90;;
39740;SDS011;25426;53.478;10.190;2023-09-30T14:42:25;5.15;;;2.10;;
39740;SDS011;25426;53.478;10.190;2023-09-30T14:44:56;5.93;;;1.50;;
39740;SDS011;25426;53.478;10.190;2023-09-30T14:47:26;6.35;;;2.08;;
39740;SDS011;25426;53.478;10.190;2023-09-30T14:49:57;6.68;;;1.85;;
39740;SDS011;25426;53.478;10.190;2023-09-30T14:52:31;6.13;;;1.70;;
39740;SDS011;25426;53.478;10.190;2023-09-30T14:55:01;6.97;;;2.17;;
39740;SDS011;25426;53.478;10.190;2023-09-30T14:57:32;7.18;;;2.22;;
39740;SDS011;25426;53.478;10.190;2023-09-30T15:00:03;6.28;;;2.17;;
39740;SDS011;25426;53.478;10.190;2023-09-30T15:02:36;6.05;;;1.77;;
39740;SDS011;25426;53.478;10.190;2023-09-30T15:05:08;6.93;;;2.00;;
39740;SDS011;25426;53.478;10.190;2023-09-30T15:07:39;7.60;;;2.40;;
39740;SDS011;25426;53.478;10.190;2023-09-30T15:10:10;6.03;;;2.42;;
39740;SDS011;25426;53.478;10.190;2023-09-30T15:12:40;9.20;;;2.38;;
39740;SDS011;25426;53.478;10.190;2023-09-30T15:15:11;3.45;;;1.63;;
39740;SDS011;25426;53.478;10.190;2023-09-30T15:17:43;6.88;;;2.13;;
39740;SDS011;25426;53.478;10.190;2023-09-30T15:20:14;5.00;;;1.85;;
39740;SDS011;25426;53.478;10.190;2023-09-30T15:22:46;8.48;;;2.42;;
39740;SDS011;25426;53.478;10.190;2023-09-30T15:25:17;7.32;;;1.92;;
39740;SDS011;25426;53.478;10.190;2023-09-30T15:27:50;8.13;;;2.45;;
39740;SDS011;25426;53.478;10.190;2023-09-30T15:30:22;5.03;;;1.92;;
39740;SDS011;25426;53.478;10.190;2023-09-30T15:32:52;6.25;;;2.55;;
39740;SDS011;25426;53.478;10.190;2023-09-30T15:35:23;8.88;;;3.08;;
39740;SDS011;25426;53.478;10.190;2023-09-30T15:37:54;5.70;;;2.08;;
39740;SDS011;25426;53.478;10.190;2023-09-30T15:40:24;5.53;;;1.83;;
39740;SDS011;25426;53.478;10.190;2023-09-30T15:43:05;4.65;;;1.67;;
39740;SDS011;25426;53.478;10.190;2023-09-30T15:45:40;7.60;;;1.90;;
39740;SDS011;25426;53.478;10.190;2023-09-30T16:33:52;8.43;;;2.80;;
39740;SDS011;25426;53.478;10.190;2023-09-30T16:36:22;6.90;;;2.90;;
39740;SDS011;25426;53.478;10.190;2023-09-30T16:38:53;7.55;;;2.67;;
39740;SDS011;25426;53.478;10.190;2023-09-30T16:41:23;7.90;;;2.97;;
39740;SDS011;25426;53.478;10.190;2023-09-30T16:43:54;7.57;;;2.83;;
39740;SDS011;25426;53.478;10.190;2023-09-30T16:46:25;9.68;;;3.13;;
39740;SDS011;25426;53.478;10.190;2023-09-30T16:49:16;9.35;;;2.92;;
39740;SDS011;25426;53.478;10.190;2023-09-30T16:51:47;7.10;;;3.35;;
39740;SDS011;25426;53.478;10.190;2023-09-30T16:54:19;13.27;;;4.25;;
39740;SDS011;25426;53.478;10.190;2023-09-30T16:56:50;8.43;;;4.60;;
39740;SDS011;25426;53.478;10.190;2023-09-30T16:59:21;11.43;;;7.68;;
39740;SDS011;25426;53.478;10.190;2023-09-30T17:01:51;16.03;;;10.57;;
39740;SDS011;25426;53.478;10.190;2023-09-30T17:04:22;13.07;;;7.77;;
39740;SDS011;25426;53.478;10.190;2023-09-30T17:06:53;9.02;;;6.35;;
39740;SDS011;25426;53.478;10.190;2023-09-30T17:09:24;14.80;;;8.77;;
39740;SDS011;25426;53.478;10.190;2023-09-30T17:12:03;17.47;;;12.03;;
39740;SDS011;25426;53.478;10.190;2023-09-30T17:14:34;15.48;;;9.93;;
39740;SDS011;25426;53.478;10.190;2023-09-30T17:17:12;13.82;;;8.45;;
39740;SDS011;25426;53.478;10.190;2023-09-30T17:19:43;13.95;;;8.50;;
39740;SDS011;25426;53.478;10.190;2023-09-30T17:22:13;7.77;;;4.57;;
39740;SDS011;25426;53.478;10.190;2023-09-30T17:24:47;11.30;;;5.47;;
39740;SDS011;25426;53.478;10.190;2023-09-30T17:27:20;9.52;;;4.60;;
39740;SDS011;25426;53.478;10.190;2023-09-30T17:29:51;7.80;;;4.47;;
39740;SDS011;25426;53.478;10.190;2023-09-30T17:32:30;6.30;;;4.37;;
39740;SDS011;25426;53.478;10.190;2023-09-30T17:35:01;7.55;;;3.75;;
39740;SDS011;25426;53.478;10.190;2023-09-30T17:37:33;6.78;;;3.90;;
39740;SDS011;25426;53.478;10.190;2023-09-30T17:40:05;10.45;;;4.90;;
39740;SDS011;25426;53.478;10.190;2023-09-30T17:42:37;10.18;;;5.45;;
39740;SDS011;25426;53.478;10.190;2023-09-30T17:45:07;12.47;;;6.90;;
39740;SDS011;25426;53.478;10.190;2023-09-30T17:47:41;16.30;;;8.87;;
39740;SDS011;25426;53.478;10.190;2023-09-30T17:50:11;29.33;;;18.05;;
39740;SDS011;25426;53.478;10.190;2023-09-30T17:52:44;21.60;;;15.77;;
39740;SDS011;25426;53.478;10.190;2023-09-30T17:55:20;20.47;;;12.77;;
39740;SDS011;25426;53.478;10.190;2023-09-30T17:57:51;12.25;;;7.35;;
39740;SDS011;25426;53.478;10.190;2023-09-30T18:00:22;13.13;;;6.05;;
39740;SDS011;25426;53.478;10.190;2023-09-30T18:02:54;13.35;;;4.32;;
39740;SDS011;25426;53.478;10.190;2023-09-30T18:05:33;10.98;;;4.43;;
39740;SDS011;25426;53.478;10.190;2023-09-30T18:08:04;10.13;;;5.30;;
39740;SDS011;25426;53.478;10.190;2023-09-30T18:10:43;11.73;;;5.33;;
39740;SDS011;25426;53.478;10.190;2023-09-30T18:13:14;13.57;;;7.10;;
39740;SDS011;25426;53.478;10.190;2023-09-30T18:15:44;12.53;;;6.23;;
39740;SDS011;25426;53.478;10.190;2023-09-30T18:18:15;13.02;;;6.13;;
39740;SDS011;25426;53.478;10.190;2023-09-30T18:20:48;15.37;;;8.53;;
39740;SDS011;25426;53.478;10.190;2023-09-30T18:23:22;16.52;;;7.38;;
39740;SDS011;25426;53.478;10.190;2023-09-30T18:25:53;12.60;;;6.00;;
39740;SDS011;25426;53.478;10.190;2023-09-30T18:28:24;10.48;;;5.50;;
39740;SDS011;25426;53.478;10.190;2023-09-30T18:31:02;10.07;;;5.50;;
39740;SDS011;25426;53.478;10.190;2023-09-30T18:33:33;12.68;;;4.63;;
39740;SDS011;25426;53.478;10.190;2023-09-30T18:36:06;10.30;;;4.87;;
39740;SDS011;25426;53.478;10.190;2023-09-30T18:38:43;13.18;;;4.80;;
39740;SDS011;25426;53.478;10.190;2023-09-30T18:41:24;9.20;;;4.43;;
39740;SDS011;25426;53.478;10.190;2023-09-30T18:44:05;10.40;;;4.50;;
39740;SDS011;25426;53.478;10.190;2023-09-30T18:49:42;8.57;;;4.20;;
39740;SDS011;25426;53.478;10.190;2023-09-30T19:03:04;9.82;;;5.30;;
39740;SDS011;25426;53.478;10.190;2023-09-30T19:13:20;9.52;;;5.00;;
39740;SDS011;25426;53.478;10.190;2023-09-30T19:15:53;9.65;;;5.68;;
39740;SDS011;25426;53.478;10.190;2023-09-30T19:19:33;11.38;;;5.80;;
39740;SDS011;25426;53.478;10.190;2023-09-30T19:22:04;8.55;;;5.30;;
39740;SDS011;25426;53.478;10.190;2023-09-30T19:25:13;10.05;;;5.30;;
39740;SDS011;25426;53.478;10.190;2023-09-30T19:28:23;7.90;;;5.00;;
39740;SDS011;25426;53.478;10.190;2023-09-30T19:31:01;14.40;;;12.27;;
